• Join FlightAware (Why Join?)
  • Login
  • US Flag 
07:31AM EDT


 

Airport Tracker/Info


-or-


 

Live Flight TrackerFlight Track Log ✈ KAP550 ✈ 09-May-2013 ✈ KMSS - KALB

Flight Track Log - Related Links

Times and Time Zones

All times are in EDT time to prevent confusion due to time zone crossing. See the KAP550 flight status page for this flight to view local times or setup timezone preferences in your user account.

Time Position Orientation Groundspeed Altitude Reporting Facility
EDT Latitude Longitude Course Direction KTS MPH feet Rate Location/Type
07:34AM 44.5808 -74.7047 160° South 150 173 6,000  Level Boston Center
07:35AM 44.5458 -74.6858 159° South 138 159 6,500 420 Climbing Boston Center
07:36AM 44.5064 -74.6669 161° South 143 165 6,900 420 Climbing Boston Center
07:37AM 44.4714 -74.6481 159° South 143 165 7,400 300 Climbing Boston Center
07:38AM 44.4344 -74.6294 160° South 149 171 7,500 60 Climbing Boston Center
07:39AM 44.7124 -74.7312 160° South  Level FlightAware Approximate
07:39AM 44.3908 -74.6072 160° South 155 178 7,600  Level Boston Center
07:40AM 44.3372 -74.5792 159° South 161 185 7,600 -60 Level Boston Center
07:41AM 44.2939 -74.5575 160° South 167 192 7,500 -60 Descending Boston Center
07:42AM 44.2506 -74.5356 160° South 167 192 7,500  Level Boston Center
07:43AM 44.2114 -74.5197 164° South 167 192 7,600  Climbing Boston Center
07:44AM 44.1658 -74.4978 161° South 167 192 7,500 -60 Descending Boston Center
07:45AM 44.1244 -74.4761 159° South 167 192 7,500  Level Boston Center
07:46AM 44.0833 -74.4544 159° South 167 192 7,500  Level Boston Center
07:47AM 44.0419 -74.4358 162° South 162 186 7,500  Level Boston Center
07:48AM 43.9986 -74.4142 160° South 162 186 7,500  Level Boston Center
07:49AM 43.9592 -74.3928 159° South 162 186 7,500  Level Boston Center
07:50AM 43.9158 -74.3739 163° South 162 186 7,500  Level Boston Center
07:51AM 43.8767 -74.3553 161° South 162 186 7,500  Level Boston Center
07:52AM 43.8331 -74.3339 161° South 162 186 7,500  Level Boston Center
07:53AM 43.7897 -74.3094 158° South 162 186 7,500  Level Boston Center
07:54AM 43.7483 -74.2911 162° South 162 186 7,500  Level Boston Center
07:55AM 43.7050 -74.2725 163° South 167 192 7,500  Level Boston Center
07:56AM 43.6617 -74.2481 158° South 167 192 7,500  Level Boston Center
07:57AM 43.6203 -74.2297 162° South 167 192 7,600  Climbing Boston Center
07:58AM 43.5767 -74.2056 158° South 167 192 7,500 -60 Descending Boston Center
07:59AM 43.5353 -74.1842 159° South 162 186 7,500  Level Boston Center
08:00AM 43.4919 -74.1631 161° South 162 186 7,500  Level Boston Center
08:01AM 43.4464 -74.1417 161° South 162 186 7,500  Level Boston Center
08:02AM 43.4258 -74.1325 162° South 166 191 7,500  Level Boston Center
08:02AM 43.4050 -74.1233 162° South 162 186 7,500  Level Boston Center
08:03AM 43.3822 -74.1142 164° South 165 190 7,500  Level Boston Center
08:03AM 43.3533 -74.0992 159° South 170 196 7,500  Level Boston Center
08:04AM 43.3386 -74.0958 171° South 166 191 7,500  Level Boston Center
08:04AM 43.3161 -74.0808 154° Southeast 164 189 7,500 -60 Level Boston Center
08:05AM 43.2581 -74.0508 159° South 164 189 7,400 -240 Descending Boston Center
08:06AM 43.2147 -74.0183 151° Southeast 169 194 7,100 -300 Descending Boston Center
08:07AM 43.1736 -73.9861 150° Southeast 174 200 6,900 -300 Descending Boston Center
08:08AM 43.1303 -73.9508 149° Southeast 174 200 6,600 -360 Descending Boston Center
08:09AM 43.0869 -73.9156 149° Southeast 181 208 6,200 -420 Descending Boston Center
08:10AM 43.0767 -73.9097 157° South 179 206 6,100 -420 Descending Boston Center
08:10AM 43.0436 -73.8803 147° Southeast 181 208 5,800 -420 Descending Boston Center
08:11AM 43.0333 -73.8744 157° South 178 205 5,700 -840 Descending Boston Center
08:11AM 43.0003 -73.8481 150° Southeast 181 208 5,000 -1,140 Descending Boston Center
08:12AM 42.9900 -73.8394 148° Southeast 189 217 4,600 -1,020 Descending Boston Center
08:12AM 42.9528 -73.8131 153° Southeast 181 208 4,000 -600 Descending Boston Center
08:13AM 42.9381 -73.8156 187° South 190 219 4,000 -900 Level Boston Center
08:13AM 42.8986 -73.8119 176° South 187 215 3,100 -1,140 Descending Boston Center
08:14AM 42.8861 -73.8117 179° South 183 211 2,900 -600 Descending Boston Center
08:14AM 42.8486 -73.8078 176° South 187 215 2,500 -1,020 Descending Boston Center
08:15AM 42.8403 -73.8133 206° Southwest 169 194 1,900 -1,020 Descending Boston Center
08:16AM 42.8006 -73.8097 176° South 135 155 1,200 -720 Descending Boston Center
08:17AM 42.7694 -73.8089 179° South 107 123 500 -720 Descending Boston Center
08:19AM 42.7491 -73.8020 170° South  Level Estimated
08:26AM 42.7491 -73.8020 170° South  Level Estimated
08:27AM 42.7491 -73.8020 170° South  Level Estimated
08:28AM 42.7491 -73.8020 170° South  Level Estimated